Time;durP1;ratioP1;P1;durP2;ratioP2;P2;SDS_P1;SDS_P2;PMS_P1;PMS_P2;Temp;Humidity;BMP_temperature;BMP_pressure;BME280_temperature;BME280_humidity;BME280_pressure;Samples;Min_cycle;Max_cycle;Signal;HPM_P1;HPM_P2
2022/06/17 00:01:28;;;;;;;5.45;2.10;;;20.50;67.00;;;;;;6941707;28;20487;-78
2022/06/17 00:04:50;;;;;;;5.05;1.98;;;20.50;67.30;;;;;;6918675;28;20459;-78
2022/06/17 00:08:20;;;;;;;5.00;2.00;;;20.60;67.90;;;;;;6921312;28;20053;-79
2022/06/17 00:11:42;;;;;;;3.67;2.00;;;20.60;67.40;;;;;;6915385;28;20139;-80
2022/06/17 00:15:14;;;;;;;6.72;2.22;;;20.60;67.00;;;;;;6915020;28;20050;-78
2022/06/17 00:18:36;;;;;;;;;;;20.50;67.60;;;;;;6935487;28;20081;-79
2022/06/17 00:21:58;;;;;;;3.70;2.17;;;20.50;67.90;;;;;;6942246;28;19999;-79
2022/06/17 00:25:31;;;;;;;5.05;2.60;;;20.30;68.20;;;;;;6937114;28;20496;-79
2022/06/17 00:28:54;;;;;;;5.90;2.00;;;20.10;68.80;;;;;;6936874;28;20045;-79
2022/06/17 00:32:16;;;;;;;5.18;2.13;;;20.00;69.60;;;;;;6941006;28;20076;-79
2022/06/17 00:35:41;;;;;;;4.90;2.20;;;20.10;69.90;;;;;;6914956;28;20146;-79
2022/06/17 00:39:04;;;;;;;3.65;2.22;;;20.10;69.90;;;;;;6915135;28;20109;-79
2022/06/17 00:42:28;;;;;;;4.93;2.22;;;20.00;69.50;;;;;;6913732;28;20084;-79
2022/06/17 00:45:56;;;;;;;3.90;2.00;;;20.00;69.90;;;;;;6914751;28;20519;-81
2022/06/17 00:49:27;;;;;;;4.30;1.98;;;20.00;69.90;;;;;;6914816;28;20090;-79
2022/06/17 00:52:59;;;;;;;3.63;1.95;;;20.00;69.90;;;;;;6916614;28;20619;-78
2022/06/17 00:56:27;;;;;;;4.38;2.25;;;20.00;70.30;;;;;;6935181;28;20052;-81
2022/06/17 01:00:17;;;;;;;3.92;1.95;;;20.00;69.20;;;;;;6923491;28;20046;-79
2022/06/17 01:03:39;;;;;;;5.88;2.08;;;20.00;70.10;;;;;;6919661;28;20594;-78
2022/06/17 01:07:11;;;;;;;3.85;2.38;;;19.90;70.20;;;;;;6925284;28;20415;-78
2022/06/17 01:10:33;;;;;;;4.53;1.80;;;19.50;71.20;;;;;;6947112;28;20053;-79
2022/06/17 01:13:56;;;;;;;6.38;2.33;;;19.30;72.20;;;;;;6946647;28;20057;-79
2022/06/17 01:17:20;;;;;;;4.07;2.00;;;19.20;72.90;;;;;;6946686;28;20085;-79
2022/06/17 01:20:44;;;;;;;6.32;2.60;;;19.20;72.70;;;;;;6943850;28;20499;-77
2022/06/17 01:24:09;;;;;;;6.45;2.40;;;19.30;72.80;;;;;;6946754;28;20187;-78
2022/06/17 01:27:36;;;;;;;3.90;2.30;;;19.30;72.50;;;;;;6933491;28;20099;-78
2022/06/17 01:31:02;;;;;;;3.85;2.20;;;19.10;73.00;;;;;;6918762;28;20096;-77
2022/06/17 01:34:24;;;;;;;6.57;2.75;;;19.00;73.80;;;;;;6931939;28;20060;-78
2022/06/17 01:37:46;;;;;;;4.27;1.90;;;18.80;74.10;;;;;;6946390;28;20152;-78
2022/06/17 01:41:14;;;;;;;4.70;2.20;;;18.70;74.40;;;;;;6946048;28;20340;-78
2022/06/17 01:44:39;;;;;;;4.82;2.03;;;18.60;74.60;;;;;;6923186;28;20057;-79
2022/06/17 01:48:01;;;;;;;5.35;2.53;;;18.50;75.10;;;;;;6926121;28;20091;-79
2022/06/17 01:51:27;;;;;;;4.25;2.00;;;18.50;75.40;;;;;;6946003;28;20096;-79
2022/06/17 01:55:11;;;;;;;4.68;2.15;;;18.50;75.70;;;;;;7254173;22;20063;-76
2022/06/17 01:58:38;;;;;;;6.22;2.40;;;18.50;75.80;;;;;;6872908;28;20093;-81
2022/06/17 02:02:03;;;;;;;6.22;2.35;;;18.30;76.00;;;;;;6874814;28;20495;-79
2022/06/17 02:05:27;;;;;;;5.28;2.80;;;18.10;76.40;;;;;;6877579;28;20102;-79
2022/06/17 02:08:51;;;;;;;5.25;2.50;;;18.00;76.20;;;;;;6877239;28;20038;-78
2022/06/17 02:12:16;;;;;;;4.57;2.30;;;18.00;77.10;;;;;;6881257;28;20396;-79
2022/06/17 02:15:40;;;;;;;4.32;2.40;;;18.00;77.70;;;;;;6871846;28;20091;-80
2022/06/17 02:19:04;;;;;;;6.93;2.63;;;18.10;77.20;;;;;;6864085;28;20081;-80
2022/06/17 02:22:32;;;;;;;4.43;2.70;;;18.10;77.10;;;;;;6868068;28;20093;-80
2022/06/17 02:25:55;;;;;;;4.68;2.45;;;18.10;77.40;;;;;;6890904;28;20050;-80
2022/06/17 02:29:19;;;;;;;5.18;2.80;;;18.00;78.00;;;;;;6875824;28;20495;-80
2022/06/17 02:32:43;;;;;;;4.47;2.40;;;17.90;79.30;;;;;;6881494;28;20077;-77
2022/06/17 02:36:14;;;;;;;6.80;2.90;;;17.90;79.60;;;;;;6888903;28;20046;-78
2022/06/17 02:39:41;;;;;;;5.78;2.60;;;17.90;79.50;;;;;;6877411;28;20599;-80
2022/06/17 02:43:10;;;;;;;5.20;2.55;;;17.90;79.80;;;;;;6880018;28;20074;-79
2022/06/17 02:46:36;;;;;;;6.93;2.85;;;17.90;79.70;;;;;;6869240;28;20050;-78
2022/06/17 02:50:00;;;;;;;6.00;2.80;;;17.80;80.10;;;;;;6889725;28;20526;-80
2022/06/17 02:53:29;;;;;;;5.13;2.47;;;17.90;80.20;;;;;;6889357;28;20412;-80
2022/06/17 02:56:55;;;;;;;5.43;2.50;;;18.00;79.80;;;;;;6880883;28;20062;-78
2022/06/17 03:00:20;;;;;;;4.78;2.50;;;18.10;79.30;;;;;;6881806;28;20506;-78
2022/06/17 03:03:43;;;;;;;3.65;2.30;;;18.00;80.10;;;;;;6888980;28;20494;-79
2022/06/17 03:07:14;;;;;;;4.38;2.40;;;17.90;80.20;;;;;;6879716;28;20123;-79
2022/06/17 03:10:39;;;;;;;4.93;2.67;;;17.90;80.40;;;;;;6888085;28;20112;-79
2022/06/17 03:14:08;;;;;;;5.97;2.63;;;17.80;81.30;;;;;;6888451;28;20074;-79
2022/06/17 03:17:32;;;;;;;3.97;2.60;;;17.70;81.70;;;;;;6867238;28;20054;-79
2022/06/17 03:20:55;;;;;;;4.95;2.40;;;17.70;80.90;;;;;;6886353;28;20078;-79
2022/06/17 03:24:26;;;;;;;5.22;2.63;;;17.70;80.70;;;;;;6888548;28;20050;-78
2022/06/17 03:27:51;;;;;;;6.50;2.60;;;17.70;80.80;;;;;;6889851;28;20049;-79
2022/06/17 03:31:23;;;;;;;4.45;2.38;;;17.70;81.50;;;;;;6872589;28;20097;-79
2022/06/17 03:34:48;;;;;;;;;;;17.70;83.20;;;;;;6888309;28;20102;-77
2022/06/17 03:38:25;;;;;;;4.68;2.33;;;17.70;82.30;;;;;;6877090;28;19926;-80
2022/06/17 03:41:54;;;;;;;5.80;2.63;;;17.60;83.20;;;;;;6887459;28;20049;-80
2022/06/17 03:45:22;;;;;;;4.68;2.92;;;17.50;83.60;;;;;;6874043;28;20050;-80
2022/06/17 03:48:57;;;;;;;5.45;2.63;;;17.40;83.90;;;;;;6880800;28;20129;-78
2022/06/17 03:52:36;;;;;;;5.70;2.75;;;17.40;84.60;;;;;;6881069;28;20050;-79
2022/06/17 03:56:05;;;;;;;4.47;2.75;;;17.50;85.10;;;;;;6878937;28;20449;-77
2022/06/17 03:59:32;;;;;;;4.82;2.72;;;17.40;84.90;;;;;;6881828;28;20085;-79
2022/06/17 04:02:54;;;;;;;4.40;2.85;;;17.40;85.70;;;;;;6887301;28;20046;-82
2022/06/17 04:06:21;;;;;;;7.22;2.70;;;17.40;86.00;;;;;;6885676;28;20042;-79
2022/06/17 04:09:47;;;;;;;4.68;2.50;;;17.50;86.60;;;;;;6887029;28;20499;-78
2022/06/17 04:13:15;;;;;;;7.35;2.85;;;17.50;87.00;;;;;;6861651;28;20090;-80
2022/06/17 04:16:45;;;;;;;4.70;2.60;;;17.50;87.30;;;;;;6882969;28;20077;-77
2022/06/17 04:20:31;;;;;;;5.45;2.80;;;17.50;87.60;;;;;;6872078;28;20054;-79
2022/06/17 04:23:53;;;;;;;4.13;2.60;;;17.40;88.60;;;;;;6887207;28;20514;-80
2022/06/17 04:27:17;;;;;;;4.83;2.70;;;17.50;89.30;;;;;;6891531;28;20042;-78
2022/06/17 04:30:43;;;;;;;4.70;2.58;;;17.50;89.70;;;;;;6889826;28;20074;-80
2022/06/17 04:34:13;;;;;;;5.85;2.53;;;17.50;90.00;;;;;;6886888;28;20053;-79
2022/06/17 04:37:35;;;;;;;4.35;2.65;;;17.50;90.20;;;;;;6896517;28;20077;-78
2022/06/17 04:41:02;;;;;;;6.82;2.78;;;17.50;90.30;;;;;;6880345;28;20062;-79
2022/06/17 04:44:24;;;;;;;5.18;2.80;;;17.60;90.70;;;;;;6895486;28;20495;-78
2022/06/17 04:47:46;;;;;;;6.70;2.80;;;17.50;90.90;;;;;;6896446;28;20057;-79
2022/06/17 04:51:12;;;;;;;4.78;2.90;;;17.40;91.30;;;;;;6880190;28;20070;-79
2022/06/17 04:54:37;;;;;;;4.55;2.75;;;17.40;91.70;;;;;;6895110;28;20085;-80
2022/06/17 04:58:00;;;;;;;4.88;3.00;;;17.40;92.10;;;;;;6871023;28;20082;-80
2022/06/17 05:01:23;;;;;;;4.25;2.55;;;17.50;91.80;;;;;;6895901;28;20053;-78
2022/06/17 05:04:48;;;;;;;5.20;2.85;;;17.60;91.00;;;;;;6890340;28;20054;-78
2022/06/17 05:08:21;;;;;;;5.32;3.05;;;17.50;92.20;;;;;;6894133;28;20051;-79
2022/06/17 05:11:48;;;;;;;4.05;2.47;;;17.40;91.30;;;;;;6893215;28;20471;-76
2022/06/17 05:15:14;;;;;;;7.57;3.00;;;17.30;91.40;;;;;;6887836;28;20054;-80
2022/06/17 05:18:36;;;;;;;6.32;3.20;;;17.30;91.10;;;;;;6882645;28;20472;-77
2022/06/17 05:21:59;;;;;;;4.27;2.70;;;17.40;91.60;;;;;;6891065;28;20073;-79
2022/06/17 05:25:25;;;;;;;6.60;2.92;;;17.40;92.00;;;;;;6892177;28;20411;-78
2022/06/17 05:28:47;;;;;;;5.45;3.00;;;17.50;91.60;;;;;;6893935;28;20516;-77
2022/06/17 05:32:12;;;;;;;4.63;2.88;;;17.50;92.00;;;;;;6891314;28;20149;-79
2022/06/17 05:35:34;;;;;;;4.43;2.85;;;17.50;92.10;;;;;;6892703;28;20049;-78
2022/06/17 05:38:56;;;;;;;4.95;3.10;;;17.60;92.20;;;;;;6888400;28;20479;-76
2022/06/17 05:42:20;;;;;;;4.63;2.80;;;17.70;92.00;;;;;;6888384;28;20054;-79
2022/06/17 05:45:42;;;;;;;5.45;2.90;;;17.80;92.10;;;;;;6888705;28;20086;-80
2022/06/17 05:49:04;;;;;;;4.32;2.55;;;17.90;91.60;;;;;;6889007;28;20526;-80
2022/06/17 05:52:26;;;;;;;5.05;2.75;;;17.90;91.10;;;;;;6875916;28;20069;-79
2022/06/17 05:55:50;;;;;;;5.28;2.63;;;18.00;90.80;;;;;;6886499;28;20481;-78
2022/06/17 05:59:14;;;;;;;6.80;2.95;;;18.10;90.60;;;;;;6890359;28;20050;-78
2022/06/17 06:02:36;;;;;;;5.88;2.80;;;18.10;91.00;;;;;;6890000;28;20038;-80
2022/06/17 06:05:58;;;;;;;5.40;2.80;;;18.20;91.00;;;;;;6880228;28;20131;-80
2022/06/17 06:09:20;;;;;;;5.50;2.72;;;18.30;91.40;;;;;;6883658;28;20431;-77
2022/06/17 06:12:57;;;;;;;5.00;3.10;;;18.30;92.00;;;;;;6890708;28;20380;-78
2022/06/17 06:16:20;;;;;;;4.15;2.55;;;18.40;91.40;;;;;;6875395;28;20059;-78
2022/06/17 06:19:42;;;;;;;6.40;2.40;;;18.40;88.80;;;;;;6889090;28;20050;-79
2022/06/17 06:23:05;;;;;;;5.82;2.58;;;18.40;88.90;;;;;;6889122;28;20046;-81
2022/06/17 06:26:27;;;;;;;5.72;2.78;;;18.50;89.00;;;;;;6885661;28;20077;-79
2022/06/17 06:29:49;;;;;;;8.02;2.60;;;18.70;89.30;;;;;;6881632;28;20039;-78
2022/06/17 06:33:12;;;;;;;4.20;2.42;;;18.80;89.80;;;;;;6873978;28;20077;-78
2022/06/17 06:36:35;;;;;;;4.85;2.50;;;18.90;90.00;;;;;;6881247;28;20046;-77
2022/06/17 06:39:57;;;;;;;4.97;2.20;;;19.00;88.70;;;;;;6732189;28;20091;-79
2022/06/17 06:43:21;;;;;;;6.18;2.40;;;19.10;88.30;;;;;;6876238;28;20393;-79
2022/06/17 06:46:43;;;;;;;5.13;2.25;;;19.20;86.00;;;;;;6887166;28;20054;-79
2022/06/17 06:50:10;;;;;;;5.10;2.70;;;19.30;84.60;;;;;;6886709;28;20046;-80
2022/06/17 06:53:32;;;;;;;8.38;2.60;;;19.30;82.10;;;;;;6882382;28;20407;-77
2022/06/17 06:56:55;;;;;;;4.97;2.27;;;19.40;82.50;;;;;;6884488;28;20507;-79
2022/06/17 07:00:22;;;;;;;5.47;2.47;;;19.40;79.70;;;;;;6885351;28;20341;-78
2022/06/17 07:03:44;;;;;;;4.20;2.22;;;19.40;79.40;;;;;;6887328;28;20101;-79
2022/06/17 07:07:07;;;;;;;7.22;2.45;;;19.50;79.90;;;;;;6886842;28;20084;-80
2022/06/17 07:10:34;;;;;;;3.90;2.38;;;19.50;80.00;;;;;;6886589;28;20050;-81
2022/06/17 07:13:56;;;;;;;5.72;2.13;;;19.60;80.90;;;;;;6882976;28;20053;-79
2022/06/17 07:17:20;;;;;;;4.72;2.35;;;19.80;80.70;;;;;;6884429;28;20057;-77
2022/06/17 07:20:47;;;;;;;5.85;2.50;;;19.90;80.40;;;;;;6887275;28;20042;-77
2022/06/17 07:24:11;;;;;;;6.18;2.30;;;20.00;80.50;;;;;;6888178;28;20500;-79
2022/06/17 07:27:33;;;;;;;4.97;2.30;;;20.00;80.50;;;;;;6877428;28;20085;-79
2022/06/17 07:30:57;;;;;;;5.72;2.50;;;20.10;80.20;;;;;;6879497;28;20046;-80
2022/06/17 07:34:19;;;;;;;6.55;2.53;;;20.20;79.30;;;;;;6876911;28;20054;-80
2022/06/17 07:41:25;;;;;;;5.35;2.67;;;20.30;79.20;;;;;;6880811;28;20042;-79
2022/06/17 07:44:47;;;;;;;5.70;2.42;;;20.30;79.40;;;;;;6887604;28;20053;-78
2022/06/17 07:48:13;;;;;;;5.70;2.40;;;20.40;79.40;;;;;;6886011;28;20054;-78
2022/06/17 07:51:35;;;;;;;4.57;2.80;;;20.60;79.60;;;;;;6885978;28;20077;-80
2022/06/17 07:54:57;;;;;;;5.53;2.42;;;20.70;79.20;;;;;;6884830;28;20476;-79
2022/06/17 07:58:20;;;;;;;5.38;2.42;;;20.70;78.60;;;;;;6886231;28;20491;-79
2022/06/17 08:01:42;;;;;;;5.30;2.50;;;20.80;78.10;;;;;;6885781;28;20619;-79
2022/06/17 08:05:06;;;;;;;4.80;2.20;;;20.90;78.00;;;;;;6885369;28;20089;-80
2022/06/17 08:08:31;;;;;;;4.13;2.15;;;21.00;78.60;;;;;;6886141;28;20065;-76
2022/06/17 08:11:54;;;;;;;5.05;2.60;;;21.20;76.70;;;;;;6880295;28;20049;-77
2022/06/17 08:15:22;;;;;;;5.20;2.60;;;21.30;77.00;;;;;;6883047;28;20409;-78
2022/06/17 08:18:45;;;;;;;5.53;2.38;;;21.30;75.60;;;;;;6880408;28;20479;-77
2022/06/17 08:22:09;;;;;;;4.88;2.30;;;21.40;76.10;;;;;;6875733;28;20058;-78
2022/06/17 08:25:32;;;;;;;6.05;2.30;;;21.50;73.90;;;;;;6868619;28;20506;-78
2022/06/17 08:28:54;;;;;;;6.43;3.00;;;21.50;75.00;;;;;;6878694;28;20054;-76
2022/06/17 08:36:04;;;;;;;4.30;2.37;;;21.50;75.50;;;;;;6881740;28;20042;-84
2022/06/17 08:39:26;;;;;;;4.82;2.45;;;21.60;74.80;;;;;;6880226;28;20046;-79
2022/06/17 08:42:59;;;;;;;7.43;2.45;;;21.70;73.30;;;;;;6888482;28;20072;-79
2022/06/17 08:46:40;;;;;;;7.70;3.33;;;21.80;73.00;;;;;;6887965;28;20050;-80
2022/06/17 08:50:32;;;;;;;4.95;2.88;;;21.90;72.30;;;;;;6889721;28;20077;-78
2022/06/17 08:54:14;;;;;;;4.40;2.40;;;21.90;70.80;;;;;;6891989;28;20046;-80
2022/06/17 08:57:52;;;;;;;6.25;3.83;;;22.10;71.20;;;;;;6887801;28;20062;-77
2022/06/17 09:01:26;;;;;;;6.03;2.80;;;22.20;69.90;;;;;;6887642;28;20082;-80
2022/06/17 09:05:21;;;;;;;5.32;2.72;;;22.30;69.30;;;;;;6887721;28;20507;-79
2022/06/17 09:09:03;;;;;;;5.75;2.20;;;22.30;69.90;;;;;;6887871;28;20046;-80
2022/06/17 09:12:38;;;;;;;5.78;2.60;;;22.50;69.00;;;;;;6888062;28;20057;-80
2022/06/17 09:16:08;;;;;;;5.05;2.35;;;22.50;68.80;;;;;;6892790;28;20096;-80
2022/06/17 09:19:33;;;;;;;4.50;2.30;;;22.50;66.60;;;;;;6892467;28;20057;-79
2022/06/17 09:23:02;;;;;;;5.30;1.80;;;22.50;65.90;;;;;;6892695;28;20073;-80
2022/06/17 09:26:28;;;;;;;3.58;1.65;;;22.60;64.10;;;;;;6892554;28;20085;-79
2022/06/17 09:29:57;;;;;;;3.58;1.67;;;22.60;62.30;;;;;;6892383;28;20046;-80
2022/06/17 09:33:24;;;;;;;4.90;1.80;;;22.70;63.00;;;;;;6892472;28;20491;-80
2022/06/17 09:36:51;;;;;;;3.25;1.83;;;22.70;64.30;;;;;;6892151;28;20081;-82
2022/06/17 09:40:25;;;;;;;4.45;1.75;;;22.80;62.50;;;;;;6892090;28;20058;-80
2022/06/17 09:43:53;;;;;;;3.05;1.80;;;22.90;62.20;;;;;;6891919;28;20051;-80
2022/06/17 09:47:21;;;;;;;4.38;1.63;;;22.90;62.70;;;;;;6891997;28;20603;-80
2022/06/17 09:50:51;;;;;;;4.22;1.60;;;23.00;61.30;;;;;;6891626;28;20097;-80
2022/06/17 09:54:21;;;;;;;4.05;1.52;;;23.10;61.10;;;;;;6892485;28;20483;-79
2022/06/17 09:57:51;;;;;;;3.92;1.70;;;23.10;61.70;;;;;;6891895;28;20089;-78
2022/06/17 10:01:14;;;;;;;4.25;1.55;;;23.10;58.20;;;;;;6891646;28;20050;-79
2022/06/17 10:04:36;;;;;;;9.80;4.72;;;23.20;57.40;;;;;;6891507;28;20081;-80
2022/06/17 10:08:08;;;;;;;4.70;2.30;;;23.20;57.00;;;;;;6891241;28;20046;-79
2022/06/17 10:11:43;;;;;;;3.70;1.80;;;23.20;57.60;;;;;;6891327;28;20481;-80
2022/06/17 10:15:27;;;;;;;5.22;1.80;;;23.20;58.20;;;;;;6891014;28;20043;-79
2022/06/17 10:19:10;;;;;;;5.43;1.35;;;23.30;57.40;;;;;;6891336;28;20057;-78
2022/06/17 10:22:47;;;;;;;3.08;1.50;;;23.40;57.50;;;;;;6890826;28;20046;-78
2022/06/17 10:26:22;;;;;;;3.55;1.60;;;23.50;56.70;;;;;;6889728;28;20085;-79
2022/06/17 10:30:01;;;;;;;3.22;1.50;;;23.50;58.20;;;;;;6888760;28;20114;-79
2022/06/17 10:33:25;;;;;;;3.47;1.60;;;23.60;57.40;;;;;;6874262;28;20082;-79
2022/06/17 10:36:52;;;;;;;5.22;1.95;;;23.70;57.40;;;;;;6885128;28;20054;-82
2022/06/17 10:40:19;;;;;;;4.03;1.70;;;23.70;58.90;;;;;;6864172;28;20051;-85
2022/06/17 10:43:45;;;;;;;7.10;1.88;;;23.80;56.50;;;;;;6863771;28;20050;-77
2022/06/17 10:47:26;;;;;;;5.13;2.85;;;23.90;60.10;;;;;;6874161;28;20054;-88
2022/06/17 10:50:49;;;;;;;7.65;4.07;;;23.90;60.70;;;;;;6878878;28;20058;-85
2022/06/17 10:54:19;;;;;;;6.25;2.25;;;24.00;56.60;;;;;;6884903;28;20042;-86
2022/06/17 10:58:08;;;;;;;3.97;1.42;;;24.10;57.90;;;;;;6884081;28;20054;-83
2022/06/17 11:01:53;;;;;;;5.35;1.52;;;24.20;56.60;;;;;;6889816;28;20053;-84
2022/06/17 11:05:31;;;;;;;3.17;1.58;;;24.30;54.90;;;;;;6886558;28;20050;-78
2022/06/17 11:08:59;;;;;;;4.40;2.00;;;24.40;56.20;;;;;;6881373;28;20117;-79
2022/06/17 11:12:33;;;;;;;5.72;2.13;;;24.40;56.60;;;;;;6872874;28;20097;-79
2022/06/17 11:15:58;;;;;;;3.08;1.40;;;24.50;56.30;;;;;;6862816;28;20054;-80
2022/06/17 11:19:23;;;;;;;3.33;1.60;;;24.50;54.40;;;;;;6889207;28;20050;-77
2022/06/17 11:22:54;;;;;;;3.00;1.20;;;24.60;53.10;;;;;;6881831;28;20046;-79
2022/06/17 11:26:21;;;;;;;3.22;1.50;;;24.60;53.00;;;;;;6882260;28;20085;-77
2022/06/17 11:29:47;;;;;;;4.57;1.52;;;24.60;51.90;;;;;;6883959;28;20050;-78
2022/06/17 11:33:24;;;;;;;3.38;1.20;;;24.70;51.80;;;;;;6884185;28;20110;-79
2022/06/17 11:37:04;;;;;;;3.13;1.10;;;24.80;53.40;;;;;;6883637;28;20541;-77
2022/06/17 11:40:29;;;;;;;3.70;1.30;;;24.80;52.70;;;;;;6884491;28;20136;-78
2022/06/17 11:43:55;;;;;;;4.57;1.42;;;25.00;52.20;;;;;;6885290;28;20110;-80
2022/06/17 11:47:22;;;;;;;3.95;1.15;;;25.00;49.20;;;;;;6872194;28;20084;-80
2022/06/17 11:51:06;;;;;;;2.25;1.10;;;25.10;50.70;;;;;;6872334;28;20085;-79
2022/06/17 11:54:34;;;;;;;2.35;0.90;;;25.30;50.80;;;;;;6864158;28;20057;-78
2022/06/17 11:57:59;;;;;;;2.58;1.10;;;25.30;49.60;;;;;;6872054;28;20054;-80
2022/06/17 12:01:22;;;;;;;4.32;1.02;;;25.60;50.50;;;;;;6868453;28;20042;-79
2022/06/17 12:04:48;;;;;;;2.80;1.00;;;25.60;48.20;;;;;;6885432;28;20042;-78
2022/06/17 12:08:20;;;;;;;2.60;0.90;;;25.60;49.10;;;;;;6879563;28;20066;-80
2022/06/17 12:11:49;;;;;;;7.80;3.50;;;25.60;47.50;;;;;;6880854;28;20038;-80
2022/06/17 12:15:27;;;;;;;2.45;1.00;;;25.70;47.10;;;;;;6867935;28;20054;-80
2022/06/17 12:18:55;;;;;;;3.13;1.35;;;25.90;46.90;;;;;;6877960;28;20058;-80
2022/06/17 12:22:22;;;;;;;11.15;8.18;;;26.00;47.60;;;;;;6867222;28;20042;-80
2022/06/17 12:25:51;;;;;;;4.00;1.50;;;26.30;47.90;;;;;;6867927;28;20073;-79
2022/06/17 12:29:20;;;;;;;2.63;1.08;;;26.30;45.50;;;;;;6862877;28;20049;-77
2022/06/17 12:32:50;;;;;;;3.03;0.82;;;26.40;49.00;;;;;;6880691;28;20047;-80
2022/06/17 12:36:20;;;;;;;4.18;1.33;;;26.50;48.10;;;;;;6860632;28;20082;-79
2022/06/17 12:39:54;;;;;;;3.70;1.15;;;26.50;47.40;;;;;;6874165;28;20050;-81
2022/06/17 12:43:25;;;;;;;3.92;1.13;;;26.60;46.10;;;;;;6875719;28;20054;-79
2022/06/17 12:46:57;;;;;;;3.97;1.20;;;26.60;48.40;;;;;;6875222;28;20182;-79
2022/06/17 12:54:21;;;;;;;5.80;2.88;;;26.90;45.30;;;;;;6865906;28;20038;-77
2022/06/17 12:57:56;;;;;;;9.07;3.53;;;27.00;45.10;;;;;;6870158;28;20081;-81
2022/06/17 13:01:24;;;;;;;3.42;1.67;;;27.20;43.40;;;;;;6865627;28;20086;-81
2022/06/17 13:05:11;;;;;;;3.05;0.90;;;27.40;43.20;;;;;;6871533;28;20080;-80
2022/06/17 13:08:43;;;;;;;7.60;2.00;;;27.30;43.60;;;;;;6891869;28;20050;-79
2022/06/17 13:12:17;;;;;;;2.42;0.95;;;27.40;45.70;;;;;;6866909;28;20042;-80
2022/06/17 13:15:46;;;;;;;2.17;0.90;;;27.50;44.30;;;;;;6865864;28;20069;-80
2022/06/17 13:19:17;;;;;;;1.83;0.85;;;27.40;42.70;;;;;;6888770;28;20089;-80
2022/06/17 13:22:47;;;;;;;2.73;1.10;;;27.60;43.10;;;;;;6876508;28;20211;-78
2022/06/17 13:26:15;;;;;;;1.85;0.80;;;27.90;41.20;;;;;;6889387;28;20411;-78
2022/06/17 13:29:51;;;;;;;2.45;0.80;;;27.80;40.10;;;;;;6887059;28;20487;-77
2022/06/17 13:33:20;;;;;;;2.88;0.90;;;27.90;40.60;;;;;;6864902;28;20051;-77
2022/06/17 13:36:53;;;;;;;3.35;1.17;;;28.10;41.60;;;;;;6880622;28;20094;-79
2022/06/17 13:40:22;;;;;;;2.08;1.00;;;28.20;43.00;;;;;;6881749;28;20506;-77
2022/06/17 13:43:53;;;;;;;3.15;1.10;;;28.30;44.30;;;;;;6868524;28;20046;-77
2022/06/17 13:47:30;;;;;;;2.00;0.90;;;28.40;43.80;;;;;;6867160;28;20109;-80
2022/06/17 13:51:08;;;;;;;3.22;1.10;;;28.40;43.30;;;;;;6872167;28;20515;-79
2022/06/17 13:54:41;;;;;;;2.50;0.95;;;28.50;44.20;;;;;;6875457;28;20054;-77
2022/06/17 13:58:14;;;;;;;2.30;1.20;;;28.50;41.90;;;;;;6879565;28;20122;-78
2022/06/17 14:01:43;;;;;;;3.65;1.00;;;28.70;40.50;;;;;;6880419;28;20050;-79
2022/06/17 14:05:23;;;;;;;3.05;0.82;;;28.80;43.00;;;;;;6865017;28;20050;-79
2022/06/17 14:08:53;;;;;;;2.23;0.83;;;29.10;41.50;;;;;;6889331;28;20057;-77
2022/06/17 14:12:44;;;;;;;1.98;0.90;;;29.10;41.00;;;;;;6879534;28;20051;-77
2022/06/17 14:16:17;;;;;;;1.52;0.85;;;29.20;39.30;;;;;;6881021;28;20125;-78
2022/06/17 14:19:46;;;;;;;1.40;0.65;;;29.30;41.10;;;;;;6875262;28;20042;-78
2022/06/17 14:27:48;;;;;;;1.73;0.80;;;29.30;38.50;;;;;;6963876;27;20411;-77
2022/06/17 14:31:32;;;;;;;2.75;0.90;;;29.50;41.50;;;;;;6982254;28;20056;-77
2022/06/17 14:35:04;;;;;;;1.83;0.90;;;29.60;38.80;;;;;;6981541;28;20067;-78
2022/06/17 14:38:31;;;;;;;1.75;0.70;;;29.60;40.00;;;;;;6988006;28;20254;-79
2022/06/17 14:42:06;;;;;;;1.38;0.63;;;29.80;38.60;;;;;;6987554;28;20048;-79
2022/06/17 14:45:57;;;;;;;1.15;0.57;;;29.90;38.20;;;;;;6985081;28;20529;-78
2022/06/17 14:49:43;;;;;;;2.35;0.80;;;30.00;37.60;;;;;;6983707;28;20929;-78
2022/06/17 14:53:44;;;;;;;2.20;0.88;;;30.30;39.60;;;;;;6993998;28;20060;-79
2022/06/17 14:57:19;;;;;;;2.10;0.90;;;30.40;39.60;;;;;;6992496;28;20092;-77
2022/06/17 15:00:53;;;;;;;3.05;0.90;;;30.30;39.10;;;;;;6980654;28;20053;-78
2022/06/17 15:04:27;;;;;;;3.80;1.17;;;30.20;39.90;;;;;;6989168;28;20052;-78
2022/06/17 15:07:54;;;;;;;2.72;1.10;;;30.40;42.10;;;;;;6990952;28;20500;-82
2022/06/17 15:11:23;;;;;;;3.03;1.10;;;30.40;42.10;;;;;;6991109;28;20515;-78
2022/06/17 15:14:50;;;;;;;3.85;1.05;;;30.60;42.10;;;;;;6989876;28;20486;-77
2022/06/17 15:18:17;;;;;;;2.13;0.90;;;30.70;39.00;;;;;;6986976;28;20072;-79
2022/06/17 15:21:51;;;;;;;2.10;0.98;;;30.70;40.90;;;;;;6983182;28;20079;-78
2022/06/17 15:25:56;;;;;;;3.00;1.00;;;31.00;39.60;;;;;;6988640;28;20451;-78
2022/06/17 15:29:22;;;;;;;3.30;0.82;;;31.00;39.90;;;;;;6989364;28;20513;-79
2022/06/17 15:32:46;;;;;;;2.53;0.80;;;31.00;40.50;;;;;;6991794;28;20494;-80
2022/06/17 15:36:22;;;;;;;1.55;0.80;;;31.20;40.00;;;;;;6975116;28;20067;-79
2022/06/17 15:39:46;;;;;;;3.40;1.00;;;31.40;41.00;;;;;;6950313;28;20037;-79
2022/06/17 15:43:15;;;;;;;1.58;0.80;;;31.30;39.40;;;;;;6973307;28;20088;-79
2022/06/17 15:46:40;;;;;;;1.30;0.70;;;31.20;39.30;;;;;;6971537;28;20049;-81
2022/06/17 15:50:07;;;;;;;2.63;0.80;;;31.40;39.00;;;;;;6979966;28;20048;-79
2022/06/17 15:53:33;;;;;;;5.45;2.88;;;31.60;38.90;;;;;;6973277;28;20045;-78
2022/06/17 15:56:59;;;;;;;5.47;2.47;;;31.80;38.50;;;;;;6973241;28;20482;-80
2022/06/17 16:00:25;;;;;;;6.85;3.65;;;32.00;37.80;;;;;;6969265;28;20406;-80
2022/06/17 16:03:55;;;;;;;3.53;1.50;;;32.70;37.60;;;;;;6945665;28;20103;-78
2022/06/17 16:07:28;;;;;;;1.73;0.77;;;32.60;37.30;;;;;;6946375;28;20522;-77
2022/06/17 16:11:15;;;;;;;1.55;0.88;;;32.50;36.80;;;;;;6972757;28;20045;-80
2022/06/17 16:14:43;;;;;;;2.60;1.00;;;32.30;39.30;;;;;;6970419;28;20090;-79
2022/06/17 16:18:39;;;;;;;2.35;0.88;;;32.50;38.70;;;;;;6961839;28;20045;-78
2022/06/17 16:22:09;;;;;;;2.58;0.90;;;32.50;39.60;;;;;;6883671;28;20058;-79
2022/06/17 16:25:35;;;;;;;2.03;0.90;;;32.40;38.50;;;;;;6896941;28;20060;-76
2022/06/17 16:29:00;;;;;;;3.03;1.05;;;32.60;39.40;;;;;;6970463;28;20136;-79
2022/06/17 16:32:27;;;;;;;2.10;0.95;;;32.60;40.00;;;;;;6970982;28;20060;-77
2022/06/17 16:35:54;;;;;;;4.75;0.90;;;32.60;40.20;;;;;;6969037;28;20049;-76
2022/06/17 16:39:28;;;;;;;2.90;0.80;;;32.60;40.20;;;;;;6971126;28;20040;-78
2022/06/17 16:46:31;;;;;;;2.00;0.90;;;32.90;38.40;;;;;;6970312;28;20048;-77
2022/06/17 16:49:55;;;;;;;1.58;0.68;;;32.60;38.50;;;;;;6956874;28;20102;-77
2022/06/17 16:53:17;;;;;;;2.60;0.80;;;32.80;39.20;;;;;;6970828;28;20052;-80
2022/06/17 16:56:46;;;;;;;1.83;0.85;;;33.00;38.20;;;;;;6971475;28;20063;-77
2022/06/17 17:00:17;;;;;;;2.60;0.77;;;33.10;38.30;;;;;;6970052;28;20051;-77
2022/06/17 17:03:39;;;;;;;4.63;0.90;;;33.30;38.00;;;;;;6971881;28;20049;-80
2022/06/17 17:07:04;;;;;;;2.35;1.10;;;33.30;38.00;;;;;;6970557;28;20463;-79
2022/06/17 17:10:26;;;;;;;4.07;1.20;;;33.30;38.10;;;;;;6969744;28;20448;-79
2022/06/17 17:13:48;;;;;;;2.72;1.20;;;33.30;38.50;;;;;;6968947;28;20056;-80
2022/06/17 17:17:11;;;;;;;2.25;0.90;;;33.40;37.80;;;;;;6970019;28;20048;-80
2022/06/17 17:20:36;;;;;;;1.73;0.90;;;33.50;38.20;;;;;;6965828;28;20389;-78
2022/06/17 17:24:01;;;;;;;1.70;0.80;;;33.40;38.50;;;;;;6948158;28;20095;-78
2022/06/17 17:27:23;;;;;;;6.88;3.70;;;33.50;38.90;;;;;;6970606;28;20063;-78
2022/06/17 17:30:48;;;;;;;4.75;2.30;;;33.50;39.00;;;;;;6970796;28;20406;-77
2022/06/17 17:34:10;;;;;;;6.32;3.03;;;33.50;39.00;;;;;;6952014;28;20084;-78
2022/06/17 17:37:33;;;;;;;2.15;1.02;;;33.60;39.80;;;;;;6916630;28;20120;-80
2022/06/17 17:41:23;;;;;;;3.50;0.90;;;33.60;39.00;;;;;;6919356;28;20042;-78
2022/06/17 17:44:40;;;;;;;3.58;0.90;;;33.50;39.10;;;;;;6932738;28;20045;-78
2022/06/17 17:48:02;;;;;;;1.88;0.90;;;33.50;40.10;;;;;;6939639;28;20053;-79
2022/06/17 17:51:25;;;;;;;2.35;0.65;;;33.40;38.30;;;;;;6938193;28;20048;-77
2022/06/17 17:54:47;;;;;;;2.67;0.90;;;33.30;38.50;;;;;;6937951;28;20541;-79
2022/06/17 17:58:13;;;;;;;3.42;1.08;;;33.30;39.40;;;;;;6938946;28;20053;-76
2022/06/17 18:01:40;;;;;;;1.90;0.80;;;33.20;40.00;;;;;;6937909;28;20544;-80
2022/06/17 18:05:04;;;;;;;3.13;0.98;;;33.20;39.90;;;;;;6936602;28;20053;-81
2022/06/17 18:08:26;;;;;;;1.45;0.70;;;33.10;39.40;;;;;;6937947;28;20041;-80
2022/06/17 18:11:52;;;;;;;2.78;1.00;;;33.00;41.40;;;;;;6937841;28;20487;-79
2022/06/17 18:15:15;;;;;;;2.97;1.35;;;33.00;41.40;;;;;;6937863;28;20081;-78
2022/06/17 18:18:39;;;;;;;3.55;1.70;;;32.90;42.00;;;;;;6937632;28;20549;-81
2022/06/17 18:22:02;;;;;;;2.40;1.10;;;32.80;42.80;;;;;;6938096;28;20141;-80
2022/06/17 18:25:25;;;;;;;2.17;0.82;;;32.80;43.50;;;;;;6936286;28;20138;-80